Terminal Aerodrome Forecast
Issued by NWS Paducah, KY

Home | Current Version | Previous Version | Text Only | Print | Product List | Glossary Off
Versions: 1 2 3 4 5 6 7 8 9 10 11 12 13 14 15 16 17 18 19 20 21 22 23

000
FTUS43 KPAH 042340
TAFPAH
TAF
KPAH 042340Z 0500/0524 01013G19KT 1/4SM +SN VV009
     FM050700 01014G21KT 2SM -SN BR OVC010
     FM050900 02012KT 3SM -SN BR OVC010
     FM051200 01010KT 6SM BR OVC010=

USA.gov is the U.S. government's official web portal to all federal, state and local government web resources and services.